sensor_id;sensor_type;location;lat;lon;timestamp;temperature;humidity
82851;DHT22;72609;45.768;4.884;2024-02-16T00:01:45;14.70;58.20
82851;DHT22;72609;45.768;4.884;2024-02-16T00:04:11;14.70;58.20
82851;DHT22;72609;45.768;4.884;2024-02-16T00:06:36;14.70;58.40
82851;DHT22;72609;45.768;4.884;2024-02-16T00:09:02;14.70;58.40
82851;DHT22;72609;45.768;4.884;2024-02-16T00:11:28;14.70;58.60
82851;DHT22;72609;45.768;4.884;2024-02-16T00:13:54;14.70;57.90
82851;DHT22;72609;45.768;4.884;2024-02-16T00:16:19;14.70;58.10
82851;DHT22;72609;45.768;4.884;2024-02-16T00:18:46;14.70;58.30
82851;DHT22;72609;45.768;4.884;2024-02-16T00:21:12;14.70;58.10
82851;DHT22;72609;45.768;4.884;2024-02-16T00:23:37;14.70;58.50
82851;DHT22;72609;45.768;4.884;2024-02-16T00:26:03;14.70;58.00
82851;DHT22;72609;45.768;4.884;2024-02-16T00:28:32;14.70;58.00
82851;DHT22;72609;45.768;4.884;2024-02-16T00:30:58;14.70;57.80
82851;DHT22;72609;45.768;4.884;2024-02-16T00:33:23;14.70;57.80
82851;DHT22;72609;45.768;4.884;2024-02-16T00:35:49;14.70;58.10
82851;DHT22;72609;45.768;4.884;2024-02-16T00:38:15;14.70;58.10
82851;DHT22;72609;45.768;4.884;2024-02-16T00:40:40;14.70;58.10
82851;DHT22;72609;45.768;4.884;2024-02-16T00:43:09;14.70;58.30
82851;DHT22;72609;45.768;4.884;2024-02-16T00:45:35;14.70;58.30
82851;DHT22;72609;45.768;4.884;2024-02-16T00:48:00;14.70;58.10
82851;DHT22;72609;45.768;4.884;2024-02-16T00:50:27;14.70;58.30
82851;DHT22;72609;45.768;4.884;2024-02-16T00:52:53;14.70;58.00
82851;DHT22;72609;45.768;4.884;2024-02-16T00:55:18;14.70;58.10
82851;DHT22;72609;45.768;4.884;2024-02-16T00:57:44;14.70;58.10
82851;DHT22;72609;45.768;4.884;2024-02-16T01:00:10;14.70;58.10
82851;DHT22;72609;45.768;4.884;2024-02-16T01:02:36;14.70;58.00
82851;DHT22;72609;45.768;4.884;2024-02-16T01:05:02;14.70;57.60
82851;DHT22;72609;45.768;4.884;2024-02-16T01:07:28;14.80;58.10
82851;DHT22;72609;45.768;4.884;2024-02-16T01:09:53;14.70;57.50
82851;DHT22;72609;45.768;4.884;2024-02-16T01:12:20;14.80;58.00
82851;DHT22;72609;45.768;4.884;2024-02-16T01:14:45;14.70;57.60
82851;DHT22;72609;45.768;4.884;2024-02-16T01:17:11;14.70;57.20
82851;DHT22;72609;45.768;4.884;2024-02-16T01:19:36;14.70;57.80
82851;DHT22;72609;45.768;4.884;2024-02-16T01:22:02;14.70;57.40
82851;DHT22;72609;45.768;4.884;2024-02-16T01:24:28;14.70;57.30
82851;DHT22;72609;45.768;4.884;2024-02-16T01:26:54;14.80;57.30
82851;DHT22;72609;45.768;4.884;2024-02-16T01:29:20;14.70;57.00
82851;DHT22;72609;45.768;4.884;2024-02-16T01:31:45;14.70;57.30
82851;DHT22;72609;45.768;4.884;2024-02-16T01:34:11;14.70;56.80
82851;DHT22;72609;45.768;4.884;2024-02-16T01:36:36;14.70;57.00
82851;DHT22;72609;45.768;4.884;2024-02-16T01:39:02;14.70;56.80
82851;DHT22;72609;45.768;4.884;2024-02-16T01:41:27;14.70;57.30
82851;DHT22;72609;45.768;4.884;2024-02-16T01:43:53;14.70;56.90
82851;DHT22;72609;45.768;4.884;2024-02-16T01:46:20;14.70;56.90
82851;DHT22;72609;45.768;4.884;2024-02-16T01:48:46;14.70;56.80
82851;DHT22;72609;45.768;4.884;2024-02-16T01:51:12;14.80;56.80
82851;DHT22;72609;45.768;4.884;2024-02-16T01:53:39;14.70;56.00
82851;DHT22;72609;45.768;4.884;2024-02-16T01:56:06;14.70;55.90
82851;DHT22;72609;45.768;4.884;2024-02-16T01:58:32;14.70;56.20
82851;DHT22;72609;45.768;4.884;2024-02-16T02:00:58;14.70;56.40
82851;DHT22;72609;45.768;4.884;2024-02-16T02:03:23;14.70;56.40
82851;DHT22;72609;45.768;4.884;2024-02-16T02:05:49;14.70;56.60
82851;DHT22;72609;45.768;4.884;2024-02-16T02:08:16;14.70;56.80
82851;DHT22;72609;45.768;4.884;2024-02-16T02:10:42;14.70;56.50
82851;DHT22;72609;45.768;4.884;2024-02-16T02:13:08;14.70;56.40
82851;DHT22;72609;45.768;4.884;2024-02-16T02:15:34;14.70;56.80
82851;DHT22;72609;45.768;4.884;2024-02-16T02:18:00;14.70;56.80
82851;DHT22;72609;45.768;4.884;2024-02-16T02:20:25;14.70;57.00
82851;DHT22;72609;45.768;4.884;2024-02-16T02:22:51;14.70;56.60
82851;DHT22;72609;45.768;4.884;2024-02-16T02:25:16;14.70;56.50
82851;DHT22;72609;45.768;4.884;2024-02-16T02:27:42;14.70;56.70
82851;DHT22;72609;45.768;4.884;2024-02-16T02:30:08;14.70;56.40
82851;DHT22;72609;45.768;4.884;2024-02-16T02:32:34;14.60;56.60
82851;DHT22;72609;45.768;4.884;2024-02-16T02:35:00;14.70;57.10
82851;DHT22;72609;45.768;4.884;2024-02-16T02:37:26;14.70;56.70
82851;DHT22;72609;45.768;4.884;2024-02-16T02:39:52;14.70;55.50
82851;DHT22;72609;45.768;4.884;2024-02-16T02:42:17;14.70;56.80
82851;DHT22;72609;45.768;4.884;2024-02-16T02:44:43;14.60;55.70
82851;DHT22;72609;45.768;4.884;2024-02-16T02:47:15;14.60;55.60
82851;DHT22;72609;45.768;4.884;2024-02-16T02:49:42;14.60;56.00
82851;DHT22;72609;45.768;4.884;2024-02-16T02:52:07;14.60;55.90
82851;DHT22;72609;45.768;4.884;2024-02-16T02:54:33;14.60;55.30
82851;DHT22;72609;45.768;4.884;2024-02-16T02:56:59;14.70;55.70
82851;DHT22;72609;45.768;4.884;2024-02-16T02:59:24;14.60;55.40
82851;DHT22;72609;45.768;4.884;2024-02-16T03:01:50;14.60;54.90
82851;DHT22;72609;45.768;4.884;2024-02-16T03:04:16;14.60;55.20
82851;DHT22;72609;45.768;4.884;2024-02-16T03:06:42;14.60;54.60
82851;DHT22;72609;45.768;4.884;2024-02-16T03:09:07;14.60;55.50
82851;DHT22;72609;45.768;4.884;2024-02-16T03:11:33;14.60;55.50
82851;DHT22;72609;45.768;4.884;2024-02-16T03:13:58;14.60;55.30
82851;DHT22;72609;45.768;4.884;2024-02-16T03:16:24;14.60;55.20
82851;DHT22;72609;45.768;4.884;2024-02-16T03:18:50;14.60;55.40
82851;DHT22;72609;45.768;4.884;2024-02-16T03:21:15;14.60;55.80
82851;DHT22;72609;45.768;4.884;2024-02-16T03:23:43;14.60;55.10
82851;DHT22;72609;45.768;4.884;2024-02-16T03:26:16;14.60;55.20
82851;DHT22;72609;45.768;4.884;2024-02-16T03:28:46;14.60;54.30
82851;DHT22;72609;45.768;4.884;2024-02-16T03:31:24;14.60;54.80
82851;DHT22;72609;45.768;4.884;2024-02-16T03:33:51;14.60;55.00
82851;DHT22;72609;45.768;4.884;2024-02-16T03:36:18;14.60;55.50
82851;DHT22;72609;45.768;4.884;2024-02-16T03:38:45;14.60;55.70
82851;DHT22;72609;45.768;4.884;2024-02-16T03:41:14;14.60;55.10
82851;DHT22;72609;45.768;4.884;2024-02-16T03:43:41;14.60;55.70
82851;DHT22;72609;45.768;4.884;2024-02-16T03:46:07;14.60;55.50
82851;DHT22;72609;45.768;4.884;2024-02-16T03:48:33;14.60;55.00
82851;DHT22;72609;45.768;4.884;2024-02-16T03:50:59;14.60;55.10
82851;DHT22;72609;45.768;4.884;2024-02-16T03:53:25;14.60;55.70
82851;DHT22;72609;45.768;4.884;2024-02-16T03:55:51;14.50;55.30
82851;DHT22;72609;45.768;4.884;2024-02-16T03:58:17;14.60;55.30
82851;DHT22;72609;45.768;4.884;2024-02-16T04:00:42;14.50;55.90
82851;DHT22;72609;45.768;4.884;2024-02-16T04:03:08;14.50;55.50
82851;DHT22;72609;45.768;4.884;2024-02-16T04:05:35;14.50;56.20
82851;DHT22;72609;45.768;4.884;2024-02-16T04:08:01;14.60;56.30
82851;DHT22;72609;45.768;4.884;2024-02-16T04:10:29;14.60;56.30
82851;DHT22;72609;45.768;4.884;2024-02-16T04:12:54;14.60;56.70
82851;DHT22;72609;45.768;4.884;2024-02-16T04:15:20;14.60;56.40
82851;DHT22;72609;45.768;4.884;2024-02-16T04:17:45;14.60;57.20
82851;DHT22;72609;45.768;4.884;2024-02-16T04:20:11;14.60;57.00
82851;DHT22;72609;45.768;4.884;2024-02-16T04:22:37;14.60;57.10
82851;DHT22;72609;45.768;4.884;2024-02-16T04:25:03;14.60;57.30
82851;DHT22;72609;45.768;4.884;2024-02-16T04:27:29;14.60;57.40
82851;DHT22;72609;45.768;4.884;2024-02-16T04:29:55;14.70;57.10
82851;DHT22;72609;45.768;4.884;2024-02-16T04:32:21;14.60;57.60
82851;DHT22;72609;45.768;4.884;2024-02-16T04:34:46;14.70;57.70
82851;DHT22;72609;45.768;4.884;2024-02-16T04:37:15;14.70;57.80
82851;DHT22;72609;45.768;4.884;2024-02-16T04:39:40;14.70;57.70
82851;DHT22;72609;45.768;4.884;2024-02-16T04:42:06;14.60;57.80
82851;DHT22;72609;45.768;4.884;2024-02-16T04:44:31;14.60;57.60
82851;DHT22;72609;45.768;4.884;2024-02-16T04:46:57;14.60;57.70
82851;DHT22;72609;45.768;4.884;2024-02-16T04:49:22;14.60;57.90
82851;DHT22;72609;45.768;4.884;2024-02-16T04:51:48;14.60;57.60
82851;DHT22;72609;45.768;4.884;2024-02-16T04:54:14;14.50;57.70
82851;DHT22;72609;45.768;4.884;2024-02-16T04:56:40;14.50;58.20
82851;DHT22;72609;45.768;4.884;2024-02-16T04:59:05;14.50;58.20
82851;DHT22;72609;45.768;4.884;2024-02-16T05:01:31;14.50;58.00
82851;DHT22;72609;45.768;4.884;2024-02-16T05:03:58;14.50;58.20
82851;DHT22;72609;45.768;4.884;2024-02-16T05:06:25;14.50;58.30
82851;DHT22;72609;45.768;4.884;2024-02-16T05:08:50;14.50;58.50
82851;DHT22;72609;45.768;4.884;2024-02-16T05:11:16;14.50;58.60
82851;DHT22;72609;45.768;4.884;2024-02-16T05:13:41;14.50;58.90
82851;DHT22;72609;45.768;4.884;2024-02-16T05:16:11;14.50;59.00
82851;DHT22;72609;45.768;4.884;2024-02-16T05:18:37;14.40;59.40
82851;DHT22;72609;45.768;4.884;2024-02-16T05:21:03;14.30;59.70
82851;DHT22;72609;45.768;4.884;2024-02-16T05:23:29;14.30;60.00
82851;DHT22;72609;45.768;4.884;2024-02-16T05:25:54;14.30;60.10
82851;DHT22;72609;45.768;4.884;2024-02-16T05:28:21;14.20;60.40
82851;DHT22;72609;45.768;4.884;2024-02-16T05:30:47;14.20;60.60
82851;DHT22;72609;45.768;4.884;2024-02-16T05:33:12;14.20;60.90
82851;DHT22;72609;45.768;4.884;2024-02-16T05:35:40;14.10;61.20
82851;DHT22;72609;45.768;4.884;2024-02-16T05:38:09;14.20;61.40
82851;DHT22;72609;45.768;4.884;2024-02-16T05:40:46;14.10;61.90
82851;DHT22;72609;45.768;4.884;2024-02-16T05:43:22;14.10;61.70
82851;DHT22;72609;45.768;4.884;2024-02-16T05:45:49;14.10;61.80
82851;DHT22;72609;45.768;4.884;2024-02-16T05:48:14;14.10;62.10
82851;DHT22;72609;45.768;4.884;2024-02-16T05:50:40;14.10;62.30
82851;DHT22;72609;45.768;4.884;2024-02-16T05:53:06;14.10;62.40
82851;DHT22;72609;45.768;4.884;2024-02-16T05:55:32;14.10;62.50
82851;DHT22;72609;45.768;4.884;2024-02-16T05:57:58;14.10;62.50
82851;DHT22;72609;45.768;4.884;2024-02-16T06:00:23;14.20;62.60
82851;DHT22;72609;45.768;4.884;2024-02-16T06:02:49;14.20;62.50
82851;DHT22;72609;45.768;4.884;2024-02-16T06:05:14;14.10;64.00
82851;DHT22;72609;45.768;4.884;2024-02-16T06:07:40;14.10;63.50
82851;DHT22;72609;45.768;4.884;2024-02-16T06:10:06;14.10;63.70
82851;DHT22;72609;45.768;4.884;2024-02-16T06:12:39;14.10;63.70
82851;DHT22;72609;45.768;4.884;2024-02-16T06:15:05;14.00;64.10
82851;DHT22;72609;45.768;4.884;2024-02-16T06:17:31;14.00;64.00
82851;DHT22;72609;45.768;4.884;2024-02-16T06:19:56;14.00;64.20
82851;DHT22;72609;45.768;4.884;2024-02-16T06:22:22;14.00;64.10
82851;DHT22;72609;45.768;4.884;2024-02-16T06:24:48;14.00;64.50
82851;DHT22;72609;45.768;4.884;2024-02-16T06:27:13;13.90;64.90
82851;DHT22;72609;45.768;4.884;2024-02-16T06:29:40;13.90;64.90
82851;DHT22;72609;45.768;4.884;2024-02-16T06:32:05;13.90;65.00
82851;DHT22;72609;45.768;4.884;2024-02-16T06:34:31;13.90;65.00
82851;DHT22;72609;45.768;4.884;2024-02-16T06:36:57;13.90;65.00
82851;DHT22;72609;45.768;4.884;2024-02-16T06:39:23;13.80;64.50
82851;DHT22;72609;45.768;4.884;2024-02-16T06:41:48;13.80;65.00
82851;DHT22;72609;45.768;4.884;2024-02-16T06:44:17;13.80;64.50
82851;DHT22;72609;45.768;4.884;2024-02-16T06:46:42;13.80;64.50
82851;DHT22;72609;45.768;4.884;2024-02-16T06:49:09;13.70;65.20
82851;DHT22;72609;45.768;4.884;2024-02-16T06:51:35;13.70;64.70
82851;DHT22;72609;45.768;4.884;2024-02-16T06:54:02;13.70;64.80
82851;DHT22;72609;45.768;4.884;2024-02-16T06:56:29;13.70;64.80
82851;DHT22;72609;45.768;4.884;2024-02-16T06:58:54;13.80;65.00
82851;DHT22;72609;45.768;4.884;2024-02-16T07:01:20;13.80;65.00
82851;DHT22;72609;45.768;4.884;2024-02-16T07:03:46;13.70;65.20
82851;DHT22;72609;45.768;4.884;2024-02-16T07:06:12;13.70;65.10
82851;DHT22;72609;45.768;4.884;2024-02-16T07:08:43;13.70;65.70
82851;DHT22;72609;45.768;4.884;2024-02-16T07:11:09;13.80;65.10
82851;DHT22;72609;45.768;4.884;2024-02-16T07:13:39;13.90;65.10
82851;DHT22;72609;45.768;4.884;2024-02-16T07:16:05;13.80;65.20
82851;DHT22;72609;45.768;4.884;2024-02-16T07:18:34;13.80;65.60
82851;DHT22;72609;45.768;4.884;2024-02-16T07:21:00;13.90;65.50
82851;DHT22;72609;45.768;4.884;2024-02-16T07:23:26;13.90;65.20
82851;DHT22;72609;45.768;4.884;2024-02-16T07:25:52;13.80;65.10
82851;DHT22;72609;45.768;4.884;2024-02-16T07:28:22;13.80;65.70
82851;DHT22;72609;45.768;4.884;2024-02-16T07:30:48;13.80;66.20
82851;DHT22;72609;45.768;4.884;2024-02-16T07:33:13;13.70;66.70
82851;DHT22;72609;45.768;4.884;2024-02-16T07:35:39;13.70;66.50
82851;DHT22;72609;45.768;4.884;2024-02-16T07:38:05;13.70;66.30
82851;DHT22;72609;45.768;4.884;2024-02-16T07:40:30;13.70;66.20
82851;DHT22;72609;45.768;4.884;2024-02-16T07:42:56;13.70;66.20
82851;DHT22;72609;45.768;4.884;2024-02-16T07:45:22;13.80;66.40
82851;DHT22;72609;45.768;4.884;2024-02-16T07:47:47;13.80;66.50
82851;DHT22;72609;45.768;4.884;2024-02-16T07:50:13;13.80;67.40
82851;DHT22;72609;45.768;4.884;2024-02-16T07:52:39;13.70;67.20
82851;DHT22;72609;45.768;4.884;2024-02-16T07:55:08;13.60;67.90
82851;DHT22;72609;45.768;4.884;2024-02-16T07:57:34;13.60;68.00
82851;DHT22;72609;45.768;4.884;2024-02-16T08:00:00;13.70;67.80
82851;DHT22;72609;45.768;4.884;2024-02-16T08:02:25;13.80;67.60
82851;DHT22;72609;45.768;4.884;2024-02-16T08:04:51;13.80;67.80
82851;DHT22;72609;45.768;4.884;2024-02-16T08:07:17;13.90;67.70
82851;DHT22;72609;45.768;4.884;2024-02-16T08:09:49;13.80;68.40
82851;DHT22;72609;45.768;4.884;2024-02-16T08:12:15;13.80;68.20
82851;DHT22;72609;45.768;4.884;2024-02-16T08:14:41;13.90;68.00
82851;DHT22;72609;45.768;4.884;2024-02-16T08:17:07;14.00;67.80
82851;DHT22;72609;45.768;4.884;2024-02-16T08:19:34;14.10;67.60
82851;DHT22;72609;45.768;4.884;2024-02-16T08:22:04;14.20;67.40
82851;DHT22;72609;45.768;4.884;2024-02-16T08:24:39;14.20;67.20
82851;DHT22;72609;45.768;4.884;2024-02-16T08:27:05;14.20;67.30
82851;DHT22;72609;45.768;4.884;2024-02-16T08:29:30;14.20;67.30
82851;DHT22;72609;45.768;4.884;2024-02-16T08:31:56;14.20;67.20
82851;DHT22;72609;45.768;4.884;2024-02-16T08:34:22;14.30;67.30
82851;DHT22;72609;45.768;4.884;2024-02-16T08:36:48;14.20;67.20
82851;DHT22;72609;45.768;4.884;2024-02-16T08:39:16;14.10;67.60
82851;DHT22;72609;45.768;4.884;2024-02-16T08:41:41;14.00;67.40
82851;DHT22;72609;45.768;4.884;2024-02-16T08:44:09;14.00;67.50
82851;DHT22;72609;45.768;4.884;2024-02-16T08:46:36;14.10;67.50
82851;DHT22;72609;45.768;4.884;2024-02-16T08:49:02;14.10;67.50
82851;DHT22;72609;45.768;4.884;2024-02-16T08:51:27;14.10;66.80
82851;DHT22;72609;45.768;4.884;2024-02-16T08:53:54;14.10;67.10
82851;DHT22;72609;45.768;4.884;2024-02-16T08:56:19;14.20;67.10
82851;DHT22;72609;45.768;4.884;2024-02-16T08:58:45;14.20;67.00
82851;DHT22;72609;45.768;4.884;2024-02-16T09:01:10;14.30;66.50
82851;DHT22;72609;45.768;4.884;2024-02-16T09:03:36;14.30;66.70
82851;DHT22;72609;45.768;4.884;2024-02-16T09:06:05;14.30;67.20
82851;DHT22;72609;45.768;4.884;2024-02-16T09:08:30;14.30;66.60
82851;DHT22;72609;45.768;4.884;2024-02-16T09:11:05;14.30;66.60
82851;DHT22;72609;45.768;4.884;2024-02-16T09:13:35;14.20;66.80
82851;DHT22;72609;45.768;4.884;2024-02-16T09:16:02;14.20;67.20
82851;DHT22;72609;45.768;4.884;2024-02-16T09:18:29;14.20;67.40
82851;DHT22;72609;45.768;4.884;2024-02-16T09:20:55;14.20;67.20
82851;DHT22;72609;45.768;4.884;2024-02-16T09:23:20;14.20;67.50
82851;DHT22;72609;45.768;4.884;2024-02-16T09:25:46;14.20;67.80
82851;DHT22;72609;45.768;4.884;2024-02-16T09:28:12;14.20;67.80
82851;DHT22;72609;45.768;4.884;2024-02-16T09:30:38;14.30;67.50
82851;DHT22;72609;45.768;4.884;2024-02-16T09:33:04;14.30;67.60
82851;DHT22;72609;45.768;4.884;2024-02-16T09:35:30;14.20;67.80
82851;DHT22;72609;45.768;4.884;2024-02-16T09:37:56;14.20;68.00
82851;DHT22;72609;45.768;4.884;2024-02-16T09:40:22;14.30;68.00
82851;DHT22;72609;45.768;4.884;2024-02-16T09:42:48;14.20;67.90
82851;DHT22;72609;45.768;4.884;2024-02-16T09:45:17;14.20;68.40
82851;DHT22;72609;45.768;4.884;2024-02-16T09:47:45;14.20;69.00
82851;DHT22;72609;45.768;4.884;2024-02-16T09:50:12;14.30;68.20
82851;DHT22;72609;45.768;4.884;2024-02-16T09:52:38;14.40;68.20
82851;DHT22;72609;45.768;4.884;2024-02-16T09:55:05;14.40;68.20
82851;DHT22;72609;45.768;4.884;2024-02-16T09:57:33;14.30;68.30
82851;DHT22;72609;45.768;4.884;2024-02-16T09:59:58;14.40;68.20
82851;DHT22;72609;45.768;4.884;2024-02-16T10:02:24;14.40;68.60
82851;DHT22;72609;45.768;4.884;2024-02-16T10:04:50;14.50;68.10
82851;DHT22;72609;45.768;4.884;2024-02-16T10:07:15;14.60;68.00
82851;DHT22;72609;45.768;4.884;2024-02-16T10:09:41;14.50;68.30
82851;DHT22;72609;45.768;4.884;2024-02-16T10:12:07;14.50;68.10
82851;DHT22;72609;45.768;4.884;2024-02-16T10:14:32;14.50;68.00
82851;DHT22;72609;45.768;4.884;2024-02-16T10:17:02;14.50;68.20
82851;DHT22;72609;45.768;4.884;2024-02-16T10:19:29;14.50;68.00
82851;DHT22;72609;45.768;4.884;2024-02-16T10:22:09;14.50;68.00
82851;DHT22;72609;45.768;4.884;2024-02-16T10:24:34;14.50;68.20
82851;DHT22;72609;45.768;4.884;2024-02-16T10:27:00;14.50;68.30
82851;DHT22;72609;45.768;4.884;2024-02-16T10:29:27;14.50;68.10
82851;DHT22;72609;45.768;4.884;2024-02-16T10:31:52;14.50;68.00
82851;DHT22;72609;45.768;4.884;2024-02-16T10:34:19;14.50;68.40
82851;DHT22;72609;45.768;4.884;2024-02-16T10:36:46;14.50;68.40
82851;DHT22;72609;45.768;4.884;2024-02-16T10:39:12;14.50;68.50
82851;DHT22;72609;45.768;4.884;2024-02-16T10:41:41;14.70;68.60
82851;DHT22;72609;45.768;4.884;2024-02-16T10:44:06;14.80;68.40
82851;DHT22;72609;45.768;4.884;2024-02-16T10:46:32;14.90;68.20
82851;DHT22;72609;45.768;4.884;2024-02-16T10:48:58;15.00;67.70
82851;DHT22;72609;45.768;4.884;2024-02-16T10:51:43;15.00;67.70
82851;DHT22;72609;45.768;4.884;2024-02-16T10:54:11;15.00;67.40
82851;DHT22;72609;45.768;4.884;2024-02-16T10:56:40;15.10;67.70
82851;DHT22;72609;45.768;4.884;2024-02-16T10:59:07;15.10;67.70
82851;DHT22;72609;45.768;4.884;2024-02-16T11:04:04;15.20;67.30
82851;DHT22;72609;45.768;4.884;2024-02-16T11:06:30;15.20;66.70
82851;DHT22;72609;45.768;4.884;2024-02-16T11:09:02;15.20;66.80
82851;DHT22;72609;45.768;4.884;2024-02-16T11:11:33;15.10;66.70
82851;DHT22;72609;45.768;4.884;2024-02-16T11:14:01;15.10;67.00
82851;DHT22;72609;45.768;4.884;2024-02-16T11:16:27;15.00;66.70
82851;DHT22;72609;45.768;4.884;2024-02-16T11:18:53;15.00;66.10
82851;DHT22;72609;45.768;4.884;2024-02-16T11:21:18;15.00;66.40
82851;DHT22;72609;45.768;4.884;2024-02-16T11:23:44;15.00;66.70
82851;DHT22;72609;45.768;4.884;2024-02-16T11:26:11;15.00;66.70
82851;DHT22;72609;45.768;4.884;2024-02-16T11:28:38;15.00;66.80
82851;DHT22;72609;45.768;4.884;2024-02-16T11:31:05;15.10;67.00
82851;DHT22;72609;45.768;4.884;2024-02-16T11:33:32;15.20;67.70
82851;DHT22;72609;45.768;4.884;2024-02-16T11:36:00;15.30;67.00
82851;DHT22;72609;45.768;4.884;2024-02-16T11:38:26;15.40;66.60
82851;DHT22;72609;45.768;4.884;2024-02-16T11:41:02;15.40;66.20
82851;DHT22;72609;45.768;4.884;2024-02-16T11:43:29;15.40;66.20
82851;DHT22;72609;45.768;4.884;2024-02-16T11:45:55;15.50;66.70
82851;DHT22;72609;45.768;4.884;2024-02-16T11:48:21;15.50;66.90
82851;DHT22;72609;45.768;4.884;2024-02-16T11:50:59;15.50;66.30
82851;DHT22;72609;45.768;4.884;2024-02-16T11:53:25;15.60;65.50
82851;DHT22;72609;45.768;4.884;2024-02-16T11:55:51;15.60;66.10
82851;DHT22;72609;45.768;4.884;2024-02-16T11:58:17;15.60;66.10
82851;DHT22;72609;45.768;4.884;2024-02-16T12:00:47;15.70;66.00
82851;DHT22;72609;45.768;4.884;2024-02-16T12:03:21;15.60;65.80
82851;DHT22;72609;45.768;4.884;2024-02-16T12:05:55;15.70;65.60
82851;DHT22;72609;45.768;4.884;2024-02-16T12:08:21;15.70;65.60
82851;DHT22;72609;45.768;4.884;2024-02-16T12:10:47;15.70;65.40
82851;DHT22;72609;45.768;4.884;2024-02-16T12:13:16;15.70;63.90
82851;DHT22;72609;45.768;4.884;2024-02-16T12:15:44;15.70;64.90
82851;DHT22;72609;45.768;4.884;2024-02-16T12:18:10;15.70;65.20
82851;DHT22;72609;45.768;4.884;2024-02-16T12:20:35;15.80;65.20
82851;DHT22;72609;45.768;4.884;2024-02-16T12:23:11;15.80;64.90
82851;DHT22;72609;45.768;4.884;2024-02-16T12:25:37;15.80;64.30
82851;DHT22;72609;45.768;4.884;2024-02-16T12:28:02;15.80;65.00
82851;DHT22;72609;45.768;4.884;2024-02-16T12:30:28;15.70;63.60
82851;DHT22;72609;45.768;4.884;2024-02-16T12:32:54;15.80;64.60
82851;DHT22;72609;45.768;4.884;2024-02-16T12:35:19;15.70;64.30
82851;DHT22;72609;45.768;4.884;2024-02-16T12:37:45;15.80;64.50
82851;DHT22;72609;45.768;4.884;2024-02-16T12:40:11;15.80;64.60
82851;DHT22;72609;45.768;4.884;2024-02-16T12:42:36;15.80;64.40
82851;DHT22;72609;45.768;4.884;2024-02-16T12:45:03;15.80;63.70
82851;DHT22;72609;45.768;4.884;2024-02-16T12:47:29;15.80;63.90
82851;DHT22;72609;45.768;4.884;2024-02-16T12:49:56;15.80;63.70
82851;DHT22;72609;45.768;4.884;2024-02-16T12:52:23;15.80;64.00
82851;DHT22;72609;45.768;4.884;2024-02-16T12:54:48;15.90;62.70
82851;DHT22;72609;45.768;4.884;2024-02-16T12:57:14;15.90;62.30
82851;DHT22;72609;45.768;4.884;2024-02-16T12:59:40;15.90;63.40
82851;DHT22;72609;45.768;4.884;2024-02-16T13:02:05;15.90;63.50
82851;DHT22;72609;45.768;4.884;2024-02-16T13:04:31;15.90;62.60
82851;DHT22;72609;45.768;4.884;2024-02-16T13:06:57;15.90;63.10
82851;DHT22;72609;45.768;4.884;2024-02-16T13:09:23;15.90;62.50
82851;DHT22;72609;45.768;4.884;2024-02-16T13:11:49;15.90;59.50
82851;DHT22;72609;45.768;4.884;2024-02-16T13:14:22;15.90;61.90
82851;DHT22;72609;45.768;4.884;2024-02-16T13:16:48;15.90;61.70
82851;DHT22;72609;45.768;4.884;2024-02-16T13:19:16;15.80;61.20
82851;DHT22;72609;45.768;4.884;2024-02-16T13:21:44;15.80;62.20
82851;DHT22;72609;45.768;4.884;2024-02-16T13:24:10;15.80;62.40
82851;DHT22;72609;45.768;4.884;2024-02-16T13:26:35;15.80;62.50
82851;DHT22;72609;45.768;4.884;2024-02-16T13:29:01;15.80;62.20
82851;DHT22;72609;45.768;4.884;2024-02-16T13:31:26;15.80;62.10
82851;DHT22;72609;45.768;4.884;2024-02-16T13:33:53;15.80;62.40
82851;DHT22;72609;45.768;4.884;2024-02-16T13:36:19;15.90;62.40
82851;DHT22;72609;45.768;4.884;2024-02-16T13:38:44;15.90;62.10
82851;DHT22;72609;45.768;4.884;2024-02-16T13:41:10;15.90;61.00
82851;DHT22;72609;45.768;4.884;2024-02-16T13:43:36;16.00;59.40
82851;DHT22;72609;45.768;4.884;2024-02-16T13:46:01;16.00;59.70
82851;DHT22;72609;45.768;4.884;2024-02-16T13:48:27;16.00;58.60
82851;DHT22;72609;45.768;4.884;2024-02-16T13:50:55;16.10;59.50
82851;DHT22;72609;45.768;4.884;2024-02-16T13:53:21;16.10;59.10
82851;DHT22;72609;45.768;4.884;2024-02-16T13:55:48;16.10;58.70
82851;DHT22;72609;45.768;4.884;2024-02-16T13:58:14;16.20;59.40
82851;DHT22;72609;45.768;4.884;2024-02-16T14:00:40;16.20;60.70
82851;DHT22;72609;45.768;4.884;2024-02-16T14:03:10;16.20;60.60
82851;DHT22;72609;45.768;4.884;2024-02-16T14:05:39;16.20;60.50
82851;DHT22;72609;45.768;4.884;2024-02-16T14:08:06;16.20;60.70
82851;DHT22;72609;45.768;4.884;2024-02-16T14:10:34;16.20;61.20
82851;DHT22;72609;45.768;4.884;2024-02-16T14:13:00;16.20;61.90
82851;DHT22;72609;45.768;4.884;2024-02-16T14:15:26;16.20;61.60
82851;DHT22;72609;45.768;4.884;2024-02-16T14:17:52;16.20;61.20
82851;DHT22;72609;45.768;4.884;2024-02-16T14:20:17;16.20;61.50
82851;DHT22;72609;45.768;4.884;2024-02-16T14:22:43;16.20;61.90
82851;DHT22;72609;45.768;4.884;2024-02-16T14:25:11;16.20;62.00
82851;DHT22;72609;45.768;4.884;2024-02-16T14:27:37;16.20;61.70
82851;DHT22;72609;45.768;4.884;2024-02-16T14:30:05;16.20;61.80
82851;DHT22;72609;45.768;4.884;2024-02-16T14:32:31;16.20;61.90
82851;DHT22;72609;45.768;4.884;2024-02-16T14:34:56;16.20;61.70
82851;DHT22;72609;45.768;4.884;2024-02-16T14:37:22;16.20;62.00
82851;DHT22;72609;45.768;4.884;2024-02-16T14:39:48;16.20;62.40
82851;DHT22;72609;45.768;4.884;2024-02-16T14:42:14;16.20;61.70
82851;DHT22;72609;45.768;4.884;2024-02-16T14:44:40;16.20;62.20
82851;DHT22;72609;45.768;4.884;2024-02-16T14:47:05;16.10;62.40
82851;DHT22;72609;45.768;4.884;2024-02-16T14:49:31;16.10;62.50
82851;DHT22;72609;45.768;4.884;2024-02-16T14:51:57;16.10;62.70
82851;DHT22;72609;45.768;4.884;2024-02-16T14:54:23;16.10;62.40
82851;DHT22;72609;45.768;4.884;2024-02-16T14:56:52;16.10;62.50
82851;DHT22;72609;45.768;4.884;2024-02-16T14:59:20;16.10;62.60
82851;DHT22;72609;45.768;4.884;2024-02-16T15:01:46;16.10;62.80
82851;DHT22;72609;45.768;4.884;2024-02-16T15:04:12;16.10;63.10
82851;DHT22;72609;45.768;4.884;2024-02-16T15:06:37;16.10;63.10
82851;DHT22;72609;45.768;4.884;2024-02-16T15:09:03;16.10;63.40
82851;DHT22;72609;45.768;4.884;2024-02-16T15:11:29;16.10;63.60
82851;DHT22;72609;45.768;4.884;2024-02-16T15:13:55;16.10;63.50
82851;DHT22;72609;45.768;4.884;2024-02-16T15:16:20;16.10;63.80
82851;DHT22;72609;45.768;4.884;2024-02-16T15:18:46;16.10;63.80
82851;DHT22;72609;45.768;4.884;2024-02-16T15:21:12;16.10;64.00
82851;DHT22;72609;45.768;4.884;2024-02-16T15:23:38;16.00;64.20
82851;DHT22;72609;45.768;4.884;2024-02-16T15:26:03;16.00;64.40
82851;DHT22;72609;45.768;4.884;2024-02-16T15:28:34;16.00;64.70